sensor_id;sensor_type;location;lat;lon;timestamp;P1;durP1;ratioP1;P2;durP2;ratioP2
69822;SDS011;57119;52.516;13.508;2022-08-19T00:00:19;15.03;;;11.63;;
69822;SDS011;57119;52.516;13.508;2022-08-19T00:02:45;13.85;;;11.05;;
69822;SDS011;57119;52.516;13.508;2022-08-19T00:05:12;16.42;;;11.63;;
69822;SDS011;57119;52.516;13.508;2022-08-19T00:07:38;14.30;;;11.13;;
69822;SDS011;57119;52.516;13.508;2022-08-19T00:10:05;14.80;;;11.68;;
69822;SDS011;57119;52.516;13.508;2022-08-19T00:12:31;14.75;;;11.68;;
69822;SDS011;57119;52.516;13.508;2022-08-19T00:14:57;14.80;;;11.83;;
69822;SDS011;57119;52.516;13.508;2022-08-19T00:17:22;14.60;;;11.17;;
69822;SDS011;57119;52.516;13.508;2022-08-19T00:19:47;14.07;;;10.90;;
69822;SDS011;57119;52.516;13.508;2022-08-19T00:22:13;14.87;;;10.97;;
69822;SDS011;57119;52.516;13.508;2022-08-19T00:24:38;17.40;;;12.00;;
69822;SDS011;57119;52.516;13.508;2022-08-19T00:27:06;16.42;;;12.40;;
69822;SDS011;57119;52.516;13.508;2022-08-19T00:29:31;14.67;;;11.93;;
69822;SDS011;57119;52.516;13.508;2022-08-19T00:31:56;16.25;;;12.30;;
69822;SDS011;57119;52.516;13.508;2022-08-19T00:34:23;14.70;;;12.17;;
69822;SDS011;57119;52.516;13.508;2022-08-19T00:36:50;15.95;;;11.98;;
69822;SDS011;57119;52.516;13.508;2022-08-19T00:39:15;16.73;;;13.15;;
69822;SDS011;57119;52.516;13.508;2022-08-19T00:41:42;15.97;;;13.13;;
69822;SDS011;57119;52.516;13.508;2022-08-19T00:44:14;18.10;;;13.10;;
69822;SDS011;57119;52.516;13.508;2022-08-19T00:46:48;17.95;;;12.77;;
69822;SDS011;57119;52.516;13.508;2022-08-19T00:51:50;16.73;;;13.52;;
69822;SDS011;57119;52.516;13.508;2022-08-19T00:54:18;16.93;;;13.60;;
69822;SDS011;57119;52.516;13.508;2022-08-19T00:56:46;18.38;;;13.82;;
69822;SDS011;57119;52.516;13.508;2022-08-19T00:59:11;19.43;;;13.97;;
69822;SDS011;57119;52.516;13.508;2022-08-19T01:01:39;18.10;;;13.65;;
69822;SDS011;57119;52.516;13.508;2022-08-19T01:04:06;19.25;;;13.85;;
69822;SDS011;57119;52.516;13.508;2022-08-19T01:06:32;16.88;;;12.57;;
69822;SDS011;57119;52.516;13.508;2022-08-19T01:09:00;18.80;;;13.90;;
69822;SDS011;57119;52.516;13.508;2022-08-19T01:11:28;17.53;;;13.67;;
69822;SDS011;57119;52.516;13.508;2022-08-19T01:13:56;15.77;;;13.00;;
69822;SDS011;57119;52.516;13.508;2022-08-19T01:16:24;18.23;;;14.35;;
69822;SDS011;57119;52.516;13.508;2022-08-19T01:18:51;20.15;;;14.38;;
69822;SDS011;57119;52.516;13.508;2022-08-19T01:24:08;20.58;;;14.80;;
69822;SDS011;57119;52.516;13.508;2022-08-19T01:26:37;21.07;;;14.40;;
69822;SDS011;57119;52.516;13.508;2022-08-19T01:29:08;18.67;;;14.85;;
69822;SDS011;57119;52.516;13.508;2022-08-19T01:31:34;24.52;;;16.85;;
69822;SDS011;57119;52.516;13.508;2022-08-19T01:34:00;19.47;;;14.47;;
69822;SDS011;57119;52.516;13.508;2022-08-19T01:36:35;18.92;;;14.13;;
69822;SDS011;57119;52.516;13.508;2022-08-19T01:39:08;20.92;;;15.07;;
69822;SDS011;57119;52.516;13.508;2022-08-19T01:41:36;19.92;;;15.07;;
69822;SDS011;57119;52.516;13.508;2022-08-19T01:44:04;20.90;;;14.97;;
69822;SDS011;57119;52.516;13.508;2022-08-19T01:46:31;21.40;;;14.88;;
69822;SDS011;57119;52.516;13.508;2022-08-19T01:48:57;21.00;;;15.98;;
69822;SDS011;57119;52.516;13.508;2022-08-19T01:51:22;20.92;;;14.48;;
69822;SDS011;57119;52.516;13.508;2022-08-19T01:53:48;20.70;;;15.67;;
69822;SDS011;57119;52.516;13.508;2022-08-19T01:56:15;21.30;;;14.88;;
69822;SDS011;57119;52.516;13.508;2022-08-19T01:58:43;17.33;;;13.50;;
69822;SDS011;57119;52.516;13.508;2022-08-19T02:01:13;18.87;;;13.40;;
69822;SDS011;57119;52.516;13.508;2022-08-19T02:03:38;18.63;;;12.40;;
69822;SDS011;57119;52.516;13.508;2022-08-19T02:06:04;19.47;;;13.83;;
69822;SDS011;57119;52.516;13.508;2022-08-19T02:08:30;19.80;;;12.77;;
69822;SDS011;57119;52.516;13.508;2022-08-19T02:10:57;18.55;;;12.90;;
69822;SDS011;57119;52.516;13.508;2022-08-19T02:13:22;17.50;;;13.37;;
69822;SDS011;57119;52.516;13.508;2022-08-19T02:15:48;18.87;;;13.60;;
69822;SDS011;57119;52.516;13.508;2022-08-19T02:18:14;18.33;;;13.40;;
69822;SDS011;57119;52.516;13.508;2022-08-19T02:20:40;18.83;;;13.53;;
69822;SDS011;57119;52.516;13.508;2022-08-19T02:23:06;18.25;;;13.52;;
69822;SDS011;57119;52.516;13.508;2022-08-19T02:25:32;17.85;;;13.82;;
69822;SDS011;57119;52.516;13.508;2022-08-19T02:27:58;17.67;;;14.07;;
69822;SDS011;57119;52.516;13.508;2022-08-19T02:30:23;18.57;;;13.90;;
69822;SDS011;57119;52.516;13.508;2022-08-19T02:32:50;20.13;;;15.20;;
69822;SDS011;57119;52.516;13.508;2022-08-19T02:35:16;18.02;;;14.50;;
69822;SDS011;57119;52.516;13.508;2022-08-19T02:37:42;20.80;;;14.90;;
69822;SDS011;57119;52.516;13.508;2022-08-19T02:40:27;19.98;;;15.07;;
69822;SDS011;57119;52.516;13.508;2022-08-19T02:42:53;21.67;;;15.60;;
69822;SDS011;57119;52.516;13.508;2022-08-19T02:45:18;18.37;;;14.17;;
69822;SDS011;57119;52.516;13.508;2022-08-19T02:47:44;18.77;;;14.47;;
69822;SDS011;57119;52.516;13.508;2022-08-19T02:50:09;18.50;;;14.57;;
69822;SDS011;57119;52.516;13.508;2022-08-19T02:52:35;18.53;;;14.70;;
69822;SDS011;57119;52.516;13.508;2022-08-19T02:55:01;19.93;;;14.73;;
69822;SDS011;57119;52.516;13.508;2022-08-19T02:57:26;19.70;;;14.75;;
69822;SDS011;57119;52.516;13.508;2022-08-19T02:59:52;19.20;;;13.65;;
69822;SDS011;57119;52.516;13.508;2022-08-19T03:02:18;18.87;;;14.30;;
69822;SDS011;57119;52.516;13.508;2022-08-19T03:04:44;21.07;;;14.97;;
69822;SDS011;57119;52.516;13.508;2022-08-19T03:07:12;19.77;;;15.40;;
69822;SDS011;57119;52.516;13.508;2022-08-19T03:09:40;19.30;;;15.63;;
69822;SDS011;57119;52.516;13.508;2022-08-19T03:12:07;17.90;;;14.35;;
69822;SDS011;57119;52.516;13.508;2022-08-19T03:14:33;18.73;;;14.60;;
69822;SDS011;57119;52.516;13.508;2022-08-19T03:16:59;17.45;;;14.10;;
69822;SDS011;57119;52.516;13.508;2022-08-19T03:19:24;18.17;;;13.95;;
69822;SDS011;57119;52.516;13.508;2022-08-19T03:21:50;17.47;;;13.77;;
69822;SDS011;57119;52.516;13.508;2022-08-19T03:24:16;17.35;;;13.90;;
69822;SDS011;57119;52.516;13.508;2022-08-19T03:26:43;19.27;;;14.23;;
69822;SDS011;57119;52.516;13.508;2022-08-19T03:29:10;19.47;;;14.60;;
69822;SDS011;57119;52.516;13.508;2022-08-19T03:31:37;19.30;;;13.48;;
69822;SDS011;57119;52.516;13.508;2022-08-19T03:34:03;20.55;;;14.00;;
69822;SDS011;57119;52.516;13.508;2022-08-19T03:36:29;19.83;;;14.63;;
69822;SDS011;57119;52.516;13.508;2022-08-19T03:38:55;20.27;;;13.70;;
69822;SDS011;57119;52.516;13.508;2022-08-19T03:41:24;22.70;;;15.03;;
69822;SDS011;57119;52.516;13.508;2022-08-19T03:43:51;21.67;;;14.50;;
69822;SDS011;57119;52.516;13.508;2022-08-19T03:46:19;20.27;;;14.80;;
69822;SDS011;57119;52.516;13.508;2022-08-19T03:48:50;20.38;;;14.98;;
69822;SDS011;57119;52.516;13.508;2022-08-19T03:51:29;20.13;;;14.70;;
69822;SDS011;57119;52.516;13.508;2022-08-19T03:53:58;19.17;;;14.70;;
69822;SDS011;57119;52.516;13.508;2022-08-19T03:56:24;18.63;;;14.50;;
69822;SDS011;57119;52.516;13.508;2022-08-19T03:58:51;19.58;;;15.10;;
69822;SDS011;57119;52.516;13.508;2022-08-19T04:01:18;19.30;;;15.30;;
69822;SDS011;57119;52.516;13.508;2022-08-19T04:03:45;20.95;;;15.57;;
69822;SDS011;57119;52.516;13.508;2022-08-19T04:06:21;19.63;;;14.57;;
69822;SDS011;57119;52.516;13.508;2022-08-19T04:08:51;18.77;;;14.40;;
69822;SDS011;57119;52.516;13.508;2022-08-19T04:11:20;18.25;;;13.60;;
69822;SDS011;57119;52.516;13.508;2022-08-19T04:13:48;18.70;;;13.95;;
69822;SDS011;57119;52.516;13.508;2022-08-19T04:16:15;18.67;;;14.57;;
69822;SDS011;57119;52.516;13.508;2022-08-19T04:18:42;19.57;;;14.40;;
69822;SDS011;57119;52.516;13.508;2022-08-19T04:21:08;18.50;;;14.50;;
69822;SDS011;57119;52.516;13.508;2022-08-19T04:23:39;18.33;;;14.70;;
69822;SDS011;57119;52.516;13.508;2022-08-19T04:26:05;17.30;;;13.25;;
69822;SDS011;57119;52.516;13.508;2022-08-19T04:28:31;17.53;;;13.70;;
69822;SDS011;57119;52.516;13.508;2022-08-19T04:30:56;18.73;;;13.93;;
69822;SDS011;57119;52.516;13.508;2022-08-19T04:33:23;16.27;;;13.43;;
69822;SDS011;57119;52.516;13.508;2022-08-19T04:35:50;18.52;;;14.23;;
69822;SDS011;57119;52.516;13.508;2022-08-19T04:38:18;17.38;;;13.13;;
69822;SDS011;57119;52.516;13.508;2022-08-19T04:40:48;19.30;;;13.95;;
69822;SDS011;57119;52.516;13.508;2022-08-19T04:43:33;17.43;;;14.07;;
69822;SDS011;57119;52.516;13.508;2022-08-19T04:46:10;18.50;;;15.00;;
69822;SDS011;57119;52.516;13.508;2022-08-19T04:48:37;17.85;;;13.63;;
69822;SDS011;57119;52.516;13.508;2022-08-19T04:51:07;17.92;;;13.60;;
69822;SDS011;57119;52.516;13.508;2022-08-19T04:53:35;18.50;;;13.75;;
69822;SDS011;57119;52.516;13.508;2022-08-19T04:56:07;17.47;;;13.93;;
69822;SDS011;57119;52.516;13.508;2022-08-19T04:58:35;18.05;;;14.05;;
69822;SDS011;57119;52.516;13.508;2022-08-19T05:01:02;16.42;;;12.73;;
69822;SDS011;57119;52.516;13.508;2022-08-19T05:03:28;16.83;;;13.40;;
69822;SDS011;57119;52.516;13.508;2022-08-19T05:05:58;16.98;;;13.00;;
69822;SDS011;57119;52.516;13.508;2022-08-19T05:08:28;16.33;;;13.87;;
69822;SDS011;57119;52.516;13.508;2022-08-19T05:10:54;18.05;;;13.63;;
69822;SDS011;57119;52.516;13.508;2022-08-19T05:13:19;17.13;;;12.60;;
69822;SDS011;57119;52.516;13.508;2022-08-19T05:15:52;15.80;;;12.23;;
69822;SDS011;57119;52.516;13.508;2022-08-19T05:18:20;16.35;;;13.10;;
69822;SDS011;57119;52.516;13.508;2022-08-19T05:21:11;17.77;;;13.30;;
69822;SDS011;57119;52.516;13.508;2022-08-19T05:23:57;16.15;;;12.77;;
69822;SDS011;57119;52.516;13.508;2022-08-19T05:26:23;19.57;;;12.47;;
69822;SDS011;57119;52.516;13.508;2022-08-19T05:28:50;17.70;;;13.43;;
69822;SDS011;57119;52.516;13.508;2022-08-19T05:31:19;17.02;;;13.25;;
69822;SDS011;57119;52.516;13.508;2022-08-19T05:33:45;15.87;;;11.93;;
69822;SDS011;57119;52.516;13.508;2022-08-19T05:36:11;20.03;;;13.30;;
69822;SDS011;57119;52.516;13.508;2022-08-19T05:38:36;16.13;;;11.63;;
69822;SDS011;57119;52.516;13.508;2022-08-19T05:41:08;15.33;;;12.53;;
69822;SDS011;57119;52.516;13.508;2022-08-19T05:43:35;15.90;;;12.48;;
69822;SDS011;57119;52.516;13.508;2022-08-19T05:46:02;16.77;;;13.32;;
69822;SDS011;57119;52.516;13.508;2022-08-19T05:48:29;17.02;;;12.52;;
69822;SDS011;57119;52.516;13.508;2022-08-19T05:50:55;15.00;;;12.40;;
69822;SDS011;57119;52.516;13.508;2022-08-19T05:53:20;15.07;;;11.60;;
69822;SDS011;57119;52.516;13.508;2022-08-19T05:55:45;18.17;;;12.37;;
69822;SDS011;57119;52.516;13.508;2022-08-19T05:58:10;15.75;;;11.35;;
69822;SDS011;57119;52.516;13.508;2022-08-19T06:00:36;15.17;;;11.50;;
69822;SDS011;57119;52.516;13.508;2022-08-19T06:03:02;16.80;;;12.20;;
69822;SDS011;57119;52.516;13.508;2022-08-19T06:05:31;16.90;;;12.97;;
69822;SDS011;57119;52.516;13.508;2022-08-19T06:07:56;15.93;;;13.05;;
69822;SDS011;57119;52.516;13.508;2022-08-19T06:10:23;18.67;;;13.75;;
69822;SDS011;57119;52.516;13.508;2022-08-19T06:12:49;16.33;;;13.30;;
69822;SDS011;57119;52.516;13.508;2022-08-19T06:15:15;15.93;;;12.50;;
69822;SDS011;57119;52.516;13.508;2022-08-19T06:17:40;18.63;;;14.67;;
69822;SDS011;57119;52.516;13.508;2022-08-19T06:20:09;17.08;;;12.68;;
69822;SDS011;57119;52.516;13.508;2022-08-19T06:22:40;17.15;;;13.07;;
69822;SDS011;57119;52.516;13.508;2022-08-19T06:25:07;18.20;;;13.43;;
69822;SDS011;57119;52.516;13.508;2022-08-19T06:27:34;18.27;;;13.80;;
69822;SDS011;57119;52.516;13.508;2022-08-19T06:30:00;18.25;;;13.65;;
69822;SDS011;57119;52.516;13.508;2022-08-19T06:32:26;19.73;;;14.32;;
69822;SDS011;57119;52.516;13.508;2022-08-19T06:34:51;17.23;;;13.13;;
69822;SDS011;57119;52.516;13.508;2022-08-19T06:37:17;17.97;;;13.70;;
69822;SDS011;57119;52.516;13.508;2022-08-19T06:39:43;17.07;;;14.07;;
69822;SDS011;57119;52.516;13.508;2022-08-19T06:42:10;21.17;;;13.43;;
69822;SDS011;57119;52.516;13.508;2022-08-19T06:44:39;21.20;;;14.32;;
69822;SDS011;57119;52.516;13.508;2022-08-19T06:47:06;17.83;;;13.82;;
69822;SDS011;57119;52.516;13.508;2022-08-19T06:49:33;16.10;;;12.93;;
69822;SDS011;57119;52.516;13.508;2022-08-19T06:52:00;18.65;;;13.85;;
69822;SDS011;57119;52.516;13.508;2022-08-19T06:54:26;18.63;;;14.88;;
69822;SDS011;57119;52.516;13.508;2022-08-19T06:56:53;15.85;;;12.90;;
69822;SDS011;57119;52.516;13.508;2022-08-19T06:59:19;17.70;;;14.03;;
69822;SDS011;57119;52.516;13.508;2022-08-19T07:01:47;17.65;;;14.27;;
69822;SDS011;57119;52.516;13.508;2022-08-19T07:04:16;17.83;;;14.30;;
69822;SDS011;57119;52.516;13.508;2022-08-19T07:06:43;18.60;;;13.87;;
69822;SDS011;57119;52.516;13.508;2022-08-19T07:09:11;18.25;;;14.73;;
69822;SDS011;57119;52.516;13.508;2022-08-19T07:11:38;17.80;;;13.80;;
69822;SDS011;57119;52.516;13.508;2022-08-19T07:14:03;17.53;;;13.50;;
69822;SDS011;57119;52.516;13.508;2022-08-19T07:16:31;19.17;;;15.23;;
69822;SDS011;57119;52.516;13.508;2022-08-19T07:18:57;18.65;;;14.45;;
69822;SDS011;57119;52.516;13.508;2022-08-19T07:21:24;17.13;;;14.13;;
69822;SDS011;57119;52.516;13.508;2022-08-19T07:23:53;17.23;;;13.95;;
69822;SDS011;57119;52.516;13.508;2022-08-19T07:26:20;18.02;;;14.90;;
69822;SDS011;57119;52.516;13.508;2022-08-19T07:28:48;18.85;;;15.27;;
69822;SDS011;57119;52.516;13.508;2022-08-19T07:31:15;17.25;;;14.02;;
69822;SDS011;57119;52.516;13.508;2022-08-19T07:33:46;20.00;;;14.37;;
69822;SDS011;57119;52.516;13.508;2022-08-19T07:36:14;18.23;;;14.20;;
69822;SDS011;57119;52.516;13.508;2022-08-19T07:38:45;20.15;;;15.25;;
69822;SDS011;57119;52.516;13.508;2022-08-19T07:41:14;19.15;;;15.13;;
69822;SDS011;57119;52.516;13.508;2022-08-19T07:43:41;18.13;;;15.38;;
69822;SDS011;57119;52.516;13.508;2022-08-19T07:46:08;18.70;;;14.53;;
69822;SDS011;57119;52.516;13.508;2022-08-19T07:48:34;18.95;;;14.35;;
69822;SDS011;57119;52.516;13.508;2022-08-19T07:51:02;19.27;;;15.30;;
69822;SDS011;57119;52.516;13.508;2022-08-19T07:53:29;21.77;;;15.88;;
69822;SDS011;57119;52.516;13.508;2022-08-19T07:55:55;17.83;;;14.55;;
69822;SDS011;57119;52.516;13.508;2022-08-19T07:58:25;19.58;;;15.02;;
69822;SDS011;57119;52.516;13.508;2022-08-19T08:00:50;18.97;;;14.90;;
69822;SDS011;57119;52.516;13.508;2022-08-19T08:03:17;17.63;;;14.48;;
69822;SDS011;57119;52.516;13.508;2022-08-19T08:05:44;17.15;;;15.00;;
69822;SDS011;57119;52.516;13.508;2022-08-19T08:08:28;20.80;;;15.60;;
69822;SDS011;57119;52.516;13.508;2022-08-19T08:11:00;19.48;;;15.30;;
69822;SDS011;57119;52.516;13.508;2022-08-19T08:13:26;18.55;;;15.80;;
69822;SDS011;57119;52.516;13.508;2022-08-19T08:15:52;18.25;;;15.52;;
69822;SDS011;57119;52.516;13.508;2022-08-19T08:18:18;16.73;;;14.93;;
69822;SDS011;57119;52.516;13.508;2022-08-19T08:20:45;20.00;;;15.80;;
69822;SDS011;57119;52.516;13.508;2022-08-19T08:23:11;18.57;;;14.80;;
69822;SDS011;57119;52.516;13.508;2022-08-19T08:25:49;20.00;;;15.07;;
69822;SDS011;57119;52.516;13.508;2022-08-19T08:28:16;18.42;;;14.82;;
69822;SDS011;57119;52.516;13.508;2022-08-19T08:30:42;18.00;;;14.53;;
69822;SDS011;57119;52.516;13.508;2022-08-19T08:33:08;18.20;;;14.07;;
69822;SDS011;57119;52.516;13.508;2022-08-19T08:35:34;20.73;;;15.02;;
69822;SDS011;57119;52.516;13.508;2022-08-19T08:38:00;18.02;;;15.27;;
69822;SDS011;57119;52.516;13.508;2022-08-19T08:40:30;16.67;;;13.90;;
69822;SDS011;57119;52.516;13.508;2022-08-19T08:43:09;17.85;;;14.02;;
69822;SDS011;57119;52.516;13.508;2022-08-19T08:48:38;16.35;;;13.32;;
69822;SDS011;57119;52.516;13.508;2022-08-19T08:51:12;15.98;;;13.35;;
69822;SDS011;57119;52.516;13.508;2022-08-19T08:53:43;17.00;;;14.13;;
69822;SDS011;57119;52.516;13.508;2022-08-19T08:56:11;18.15;;;13.75;;
69822;SDS011;57119;52.516;13.508;2022-08-19T08:58:58;16.52;;;13.57;;
69822;SDS011;57119;52.516;13.508;2022-08-19T09:01:28;16.60;;;13.80;;
69822;SDS011;57119;52.516;13.508;2022-08-19T09:03:54;20.17;;;13.37;;
69822;SDS011;57119;52.516;13.508;2022-08-19T09:06:29;17.33;;;14.60;;
69822;SDS011;57119;52.516;13.508;2022-08-19T09:09:09;16.60;;;14.50;;
69822;SDS011;57119;52.516;13.508;2022-08-19T09:14:53;17.88;;;14.80;;
69822;SDS011;57119;52.516;13.508;2022-08-19T09:17:24;17.63;;;13.98;;
69822;SDS011;57119;52.516;13.508;2022-08-19T09:22:42;16.93;;;14.43;;
69822;SDS011;57119;52.516;13.508;2022-08-19T09:25:09;18.48;;;14.80;;
69822;SDS011;57119;52.516;13.508;2022-08-19T09:27:36;19.00;;;15.05;;
69822;SDS011;57119;52.516;13.508;2022-08-19T09:30:03;16.90;;;15.10;;
69822;SDS011;57119;52.516;13.508;2022-08-19T09:32:30;16.92;;;14.57;;
69822;SDS011;57119;52.516;13.508;2022-08-19T09:34:55;15.80;;;14.10;;
69822;SDS011;57119;52.516;13.508;2022-08-19T09:37:23;18.33;;;16.02;;
69822;SDS011;57119;52.516;13.508;2022-08-19T09:39:49;21.38;;;17.02;;
69822;SDS011;57119;52.516;13.508;2022-08-19T09:42:15;16.50;;;14.63;;
69822;SDS011;57119;52.516;13.508;2022-08-19T09:44:41;17.13;;;14.17;;
69822;SDS011;57119;52.516;13.508;2022-08-19T09:47:09;17.98;;;15.07;;
69822;SDS011;57119;52.516;13.508;2022-08-19T09:49:36;18.40;;;15.73;;
69822;SDS011;57119;52.516;13.508;2022-08-19T09:52:02;15.50;;;13.88;;
69822;SDS011;57119;52.516;13.508;2022-08-19T09:54:28;17.87;;;14.70;;
69822;SDS011;57119;52.516;13.508;2022-08-19T09:56:54;18.13;;;14.82;;
69822;SDS011;57119;52.516;13.508;2022-08-19T09:59:20;21.30;;;15.37;;
69822;SDS011;57119;52.516;13.508;2022-08-19T10:01:45;17.50;;;13.80;;
69822;SDS011;57119;52.516;13.508;2022-08-19T10:04:11;16.27;;;14.13;;
69822;SDS011;57119;52.516;13.508;2022-08-19T10:06:37;18.23;;;14.82;;
69822;SDS011;57119;52.516;13.508;2022-08-19T10:09:05;16.10;;;14.38;;
69822;SDS011;57119;52.516;13.508;2022-08-19T10:11:33;16.90;;;14.37;;
69822;SDS011;57119;52.516;13.508;2022-08-19T10:14:00;17.00;;;14.13;;
69822;SDS011;57119;52.516;13.508;2022-08-19T10:16:26;15.43;;;13.77;;
69822;SDS011;57119;52.516;13.508;2022-08-19T10:18:51;15.67;;;14.00;;
69822;SDS011;57119;52.516;13.508;2022-08-19T10:21:22;17.58;;;15.77;;
69822;SDS011;57119;52.516;13.508;2022-08-19T10:23:51;17.83;;;14.98;;
69822;SDS011;57119;52.516;13.508;2022-08-19T10:26:19;16.10;;;14.40;;
69822;SDS011;57119;52.516;13.508;2022-08-19T10:28:55;15.87;;;13.43;;
69822;SDS011;57119;52.516;13.508;2022-08-19T10:31:23;16.90;;;13.15;;
69822;SDS011;57119;52.516;13.508;2022-08-19T10:33:50;16.95;;;12.88;;
69822;SDS011;57119;52.516;13.508;2022-08-19T10:36:22;13.45;;;11.82;;
69822;SDS011;57119;52.516;13.508;2022-08-19T10:38:49;14.32;;;11.68;;
69822;SDS011;57119;52.516;13.508;2022-08-19T10:41:23;14.37;;;12.87;;
69822;SDS011;57119;52.516;13.508;2022-08-19T10:43:52;16.13;;;12.02;;
69822;SDS011;57119;52.516;13.508;2022-08-19T10:46:20;15.40;;;12.48;;
69822;SDS011;57119;52.516;13.508;2022-08-19T10:48:47;14.88;;;13.00;;
69822;SDS011;57119;52.516;13.508;2022-08-19T10:51:13;16.73;;;12.77;;
69822;SDS011;57119;52.516;13.508;2022-08-19T10:53:57;13.93;;;12.40;;
69822;SDS011;57119;52.516;13.508;2022-08-19T10:56:23;14.13;;;11.15;;
69822;SDS011;57119;52.516;13.508;2022-08-19T10:59:08;16.15;;;12.38;;
69822;SDS011;57119;52.516;13.508;2022-08-19T11:01:34;16.35;;;13.23;;
69822;SDS011;57119;52.516;13.508;2022-08-19T11:04:01;17.00;;;12.70;;
69822;SDS011;57119;52.516;13.508;2022-08-19T11:06:28;15.10;;;12.87;;
69822;SDS011;57119;52.516;13.508;2022-08-19T11:08:55;14.82;;;13.23;;
69822;SDS011;57119;52.516;13.508;2022-08-19T11:11:20;15.90;;;12.00;;
69822;SDS011;57119;52.516;13.508;2022-08-19T11:13:46;16.67;;;12.93;;
69822;SDS011;57119;52.516;13.508;2022-08-19T11:16:14;15.63;;;13.73;;
69822;SDS011;57119;52.516;13.508;2022-08-19T11:18:48;16.58;;;12.57;;
69822;SDS011;57119;52.516;13.508;2022-08-19T11:21:19;16.00;;;12.95;;
69822;SDS011;57119;52.516;13.508;2022-08-19T11:23:48;15.73;;;12.87;;
69822;SDS011;57119;52.516;13.508;2022-08-19T11:26:16;19.17;;;13.23;;
69822;SDS011;57119;52.516;13.508;2022-08-19T11:28:41;15.05;;;12.95;;
69822;SDS011;57119;52.516;13.508;2022-08-19T11:31:26;19.20;;;12.43;;
69822;SDS011;57119;52.516;13.508;2022-08-19T11:33:53;16.15;;;12.30;;
69822;SDS011;57119;52.516;13.508;2022-08-19T11:36:21;15.98;;;12.05;;
69822;SDS011;57119;52.516;13.508;2022-08-19T11:38:47;15.90;;;12.77;;
69822;SDS011;57119;52.516;13.508;2022-08-19T11:41:15;14.98;;;12.30;;
69822;SDS011;57119;52.516;13.508;2022-08-19T11:43:42;16.27;;;11.87;;
69822;SDS011;57119;52.516;13.508;2022-08-19T11:46:08;16.65;;;12.32;;
69822;SDS011;57119;52.516;13.508;2022-08-19T11:48:36;14.93;;;12.20;;
69822;SDS011;57119;52.516;13.508;2022-08-19T11:51:06;15.35;;;12.20;;
69822;SDS011;57119;52.516;13.508;2022-08-19T11:53:35;14.90;;;12.20;;
69822;SDS011;57119;52.516;13.508;2022-08-19T11:56:02;14.82;;;12.38;;
69822;SDS011;57119;52.516;13.508;2022-08-19T11:58:29;14.38;;;11.65;;
69822;SDS011;57119;52.516;13.508;2022-08-19T12:00:55;14.20;;;11.40;;
69822;SDS011;57119;52.516;13.508;2022-08-19T12:03:21;13.60;;;11.65;;
69822;SDS011;57119;52.516;13.508;2022-08-19T12:05:47;15.02;;;11.80;;
69822;SDS011;57119;52.516;13.508;2022-08-19T12:08:13;12.33;;;11.03;;
69822;SDS011;57119;52.516;13.508;2022-08-19T12:10:39;13.52;;;11.18;;
69822;SDS011;57119;52.516;13.508;2022-08-19T12:13:07;13.02;;;10.13;;
69822;SDS011;57119;52.516;13.508;2022-08-19T12:15:36;14.77;;;11.35;;
69822;SDS011;57119;52.516;13.508;2022-08-19T12:18:03;12.60;;;10.20;;
69822;SDS011;57119;52.516;13.508;2022-08-19T12:20:29;12.32;;;10.40;;
69822;SDS011;57119;52.516;13.508;2022-08-19T12:22:55;15.25;;;11.05;;
69822;SDS011;57119;52.516;13.508;2022-08-19T12:25:20;15.40;;;10.67;;
69822;SDS011;57119;52.516;13.508;2022-08-19T12:27:46;15.97;;;10.97;;
69822;SDS011;57119;52.516;13.508;2022-08-19T12:30:12;12.85;;;10.27;;
69822;SDS011;57119;52.516;13.508;2022-08-19T12:32:38;13.82;;;10.20;;
69822;SDS011;57119;52.516;13.508;2022-08-19T12:35:04;12.87;;;10.70;;
69822;SDS011;57119;52.516;13.508;2022-08-19T12:37:31;12.02;;;9.52;;
69822;SDS011;57119;52.516;13.508;2022-08-19T12:39:57;12.63;;;9.70;;
69822;SDS011;57119;52.516;13.508;2022-08-19T12:42:22;11.73;;;9.40;;
69822;SDS011;57119;52.516;13.508;2022-08-19T12:44:48;14.70;;;9.70;;
69822;SDS011;57119;52.516;13.508;2022-08-19T12:47:13;14.70;;;9.18;;
69822;SDS011;57119;52.516;13.508;2022-08-19T12:49:39;13.23;;;9.80;;
69822;SDS011;57119;52.516;13.508;2022-08-19T12:52:06;12.82;;;9.48;;
69822;SDS011;57119;52.516;13.508;2022-08-19T12:54:33;12.43;;;9.73;;
69822;SDS011;57119;52.516;13.508;2022-08-19T12:56:59;12.35;;;9.77;;
69822;SDS011;57119;52.516;13.508;2022-08-19T12:59:25;12.03;;;10.07;;
69822;SDS011;57119;52.516;13.508;2022-08-19T13:01:52;11.10;;;9.93;;
69822;SDS011;57119;52.516;13.508;2022-08-19T13:04:17;12.43;;;10.43;;
69822;SDS011;57119;52.516;13.508;2022-08-19T13:06:43;12.07;;;9.25;;
69822;SDS011;57119;52.516;13.508;2022-08-19T13:09:08;11.03;;;9.37;;
69822;SDS011;57119;52.516;13.508;2022-08-19T13:11:34;13.10;;;9.77;;
69822;SDS011;57119;52.516;13.508;2022-08-19T13:14:02;11.13;;;9.57;;
69822;SDS011;57119;52.516;13.508;2022-08-19T13:16:28;11.93;;;9.73;;
69822;SDS011;57119;52.516;13.508;2022-08-19T13:18:54;11.70;;;9.32;;
69822;SDS011;57119;52.516;13.508;2022-08-19T13:21:21;12.93;;;10.03;;
69822;SDS011;57119;52.516;13.508;2022-08-19T13:23:49;12.32;;;10.00;;
69822;SDS011;57119;52.516;13.508;2022-08-19T13:26:15;12.13;;;10.32;;
69822;SDS011;57119;52.516;13.508;2022-08-19T13:28:41;14.15;;;10.52;;
69822;SDS011;57119;52.516;13.508;2022-08-19T13:31:30;12.23;;;10.68;;
69822;SDS011;57119;52.516;13.508;2022-08-19T13:34:16;13.93;;;10.27;;
69822;SDS011;57119;52.516;13.508;2022-08-19T13:36:44;12.57;;;10.63;;
69822;SDS011;57119;52.516;13.508;2022-08-19T13:39:09;14.25;;;10.45;;
69822;SDS011;57119;52.516;13.508;2022-08-19T13:41:36;12.77;;;10.63;;
69822;SDS011;57119;52.516;13.508;2022-08-19T13:44:02;12.88;;;11.00;;
69822;SDS011;57119;52.516;13.508;2022-08-19T13:46:28;15.35;;;13.73;;
69822;SDS011;57119;52.516;13.508;2022-08-19T13:48:54;18.90;;;15.02;;
69822;SDS011;57119;52.516;13.508;2022-08-19T13:51:19;21.43;;;17.40;;
69822;SDS011;57119;52.516;13.508;2022-08-19T13:53:45;21.05;;;15.07;;
69822;SDS011;57119;52.516;13.508;2022-08-19T13:56:11;13.00;;;11.47;;
69822;SDS011;57119;52.516;13.508;2022-08-19T13:58:39;13.35;;;10.95;;
69822;SDS011;57119;52.516;13.508;2022-08-19T14:01:05;12.70;;;10.83;;
69822;SDS011;57119;52.516;13.508;2022-08-19T14:03:32;13.18;;;11.13;;
69822;SDS011;57119;52.516;13.508;2022-08-19T14:05:58;14.65;;;10.70;;
69822;SDS011;57119;52.516;13.508;2022-08-19T14:08:24;15.43;;;11.20;;
69822;SDS011;57119;52.516;13.508;2022-08-19T14:10:52;13.02;;;10.55;;
69822;SDS011;57119;52.516;13.508;2022-08-19T14:13:19;15.95;;;11.15;;
69822;SDS011;57119;52.516;13.508;2022-08-19T14:15:46;13.30;;;10.80;;
69822;SDS011;57119;52.516;13.508;2022-08-19T14:18:12;14.48;;;11.52;;
69822;SDS011;57119;52.516;13.508;2022-08-19T14:20:39;13.32;;;10.32;;
69822;SDS011;57119;52.516;13.508;2022-08-19T14:23:05;14.93;;;10.73;;
69822;SDS011;57119;52.516;13.508;2022-08-19T14:25:31;13.70;;;11.07;;